createdAt,value
2023-02-08T00:00:36.002Z,25.88
2023-02-08T00:03:03.380Z,25.83
2023-02-08T00:05:29.834Z,26.58
2023-02-08T00:07:56.226Z,25.27
2023-02-08T00:10:22.735Z,25.20
2023-02-08T00:12:49.262Z,25.80
2023-02-08T00:15:15.752Z,25.95
2023-02-08T00:17:42.193Z,25.13
2023-02-08T00:20:09.383Z,25.75
2023-02-08T00:22:35.828Z,25.90
2023-02-08T00:25:02.218Z,24.98
2023-02-08T00:27:30.014Z,25.88
2023-02-08T00:29:56.476Z,25.45
2023-02-08T00:32:23.000Z,25.63
2023-02-08T00:34:49.435Z,28.40
2023-02-08T00:37:16.275Z,29.05
2023-02-08T00:39:42.848Z,27.20
2023-02-08T00:42:12.064Z,25.10
2023-02-08T00:44:38.517Z,24.67
2023-02-08T00:47:05.049Z,24.60
2023-02-08T00:49:31.464Z,25.90
2023-02-08T00:51:57.888Z,25.65
2023-02-08T00:54:24.293Z,25.15
2023-02-08T00:56:52.079Z,23.42
2023-02-08T00:59:18.484Z,24.27
2023-02-08T01:01:44.973Z,25.83
2023-02-08T01:04:11.473Z,25.90
2023-02-08T01:06:43.496Z,23.88
2023-02-08T01:09:10.075Z,26.20
2023-02-08T01:11:36.542Z,24.58
2023-02-08T01:14:02.983Z,24.05
2023-02-08T01:16:32.253Z,24.05
2023-02-08T01:19:01.505Z,24.85
2023-02-08T01:21:32.921Z,23.70
2023-02-08T01:24:00.149Z,24.42
2023-02-08T01:26:26.972Z,24.90
2023-02-08T01:28:54.937Z,23.73
2023-02-08T01:31:24.702Z,23.20
2023-02-08T01:33:51.672Z,23.83
2023-02-08T01:36:18.638Z,22.45
2023-02-08T01:38:46.752Z,23.30
2023-02-08T01:41:23.722Z,23.90
2023-02-08T01:44:46.604Z,22.98
2023-02-08T01:47:13.206Z,22.80
2023-02-08T01:49:40.338Z,20.10
2023-02-08T01:52:20.512Z,21.92
2023-02-08T01:54:53.927Z,21.13
2023-02-08T01:59:54.857Z,19.00
2023-02-08T02:02:22.997Z,19.30
2023-02-08T02:04:51.264Z,19.80
2023-02-08T02:07:20.278Z,20.17
2023-02-08T02:10:16.237Z,18.65
2023-02-08T02:12:43.565Z,19.20
2023-02-08T02:15:10.423Z,18.42
2023-02-08T02:17:39.174Z,18.10
2023-02-08T02:20:10.763Z,18.77
2023-02-08T02:23:11.311Z,20.15
2023-02-08T02:25:59.087Z,19.52
2023-02-08T02:29:10.478Z,20.70
2023-02-08T02:32:13.903Z,18.63
2023-02-08T02:34:57.513Z,18.00
2023-02-08T02:37:49.268Z,19.40
2023-02-08T02:40:32.334Z,17.73
2023-02-08T02:43:36.524Z,18.58
2023-02-08T02:46:12.719Z,16.90
2023-02-08T02:48:58.977Z,17.13
2023-02-08T02:51:43.289Z,17.40
2023-02-08T02:54:17.208Z,17.02
2023-02-08T02:56:47.606Z,18.13
2023-02-08T02:59:15.937Z,17.63
2023-02-08T03:01:44.612Z,18.73
2023-02-08T03:04:13.728Z,16.02
2023-02-08T03:06:52.764Z,17.00
2023-02-08T03:09:42.695Z,16.17
2023-02-08T03:12:31.320Z,16.35
2023-02-08T03:15:23.483Z,15.98
2023-02-08T03:17:56.956Z,15.48
2023-02-08T03:23:12.798Z,14.93
2023-02-08T03:25:51.847Z,15.07
2023-02-08T03:28:34.049Z,17.63
2023-02-08T03:31:24.198Z,14.73
2023-02-08T03:34:18.384Z,15.52
2023-02-08T03:36:53.405Z,15.77
2023-02-08T03:39:26.187Z,15.98
2023-02-08T03:41:57.829Z,15.35
2023-02-08T03:44:49.614Z,15.27
2023-02-08T03:47:32.736Z,14.52
2023-02-08T03:50:06.598Z,14.90
2023-02-08T03:52:34.865Z,14.07
2023-02-08T03:55:08.505Z,14.68
2023-02-08T03:57:41.776Z,15.32
2023-02-08T04:00:12.437Z,15.07
2023-02-08T04:02:45.080Z,15.75
2023-02-08T04:05:12.583Z,15.88
2023-02-08T04:07:39.056Z,15.63
2023-02-08T04:10:09.458Z,14.98
2023-02-08T04:12:36.507Z,15.38
2023-02-08T04:15:03.216Z,15.10
2023-02-08T04:17:29.904Z,14.82
2023-02-08T04:19:56.344Z,15.48
2023-02-08T04:22:22.778Z,16.85
2023-02-08T04:24:49.212Z,16.80
2023-02-08T04:27:15.677Z,16.30
2023-02-08T04:29:42.060Z,16.42
2023-02-08T04:32:11.696Z,17.50
2023-02-08T04:34:38.767Z,16.48
2023-02-08T04:37:12.085Z,15.63
2023-02-08T04:42:05.232Z,14.93
2023-02-08T04:44:32.903Z,14.85
2023-02-08T04:47:00.470Z,14.88
2023-02-08T04:49:26.909Z,16.90
2023-02-08T04:51:53.367Z,14.32
2023-02-08T04:54:19.953Z,16.98
2023-02-08T04:56:46.948Z,16.48
2023-02-08T04:59:13.334Z,15.05
2023-02-08T05:01:42.696Z,15.85
2023-02-08T05:04:09.320Z,16.55
2023-02-08T05:06:36.207Z,15.95
2023-02-08T05:09:02.787Z,15.48
2023-02-08T05:11:29.516Z,16.45
2023-02-08T05:13:56.093Z,15.00
2023-02-08T05:16:22.660Z,15.68
2023-02-08T05:18:49.211Z,13.70
2023-02-08T05:21:15.705Z,14.65
2023-02-08T05:23:42.133Z,14.93
2023-02-08T05:26:11.455Z,14.50
2023-02-08T05:28:38.245Z,13.93
2023-02-08T05:31:20.964Z,13.93
2023-02-08T05:33:48.918Z,14.00
2023-02-08T05:36:15.688Z,13.35
2023-02-08T05:38:43.059Z,13.25
2023-02-08T05:41:09.751Z,13.82
2023-02-08T05:43:36.308Z,12.82
2023-02-08T05:46:03.580Z,12.75
2023-02-08T05:48:31.830Z,11.70
2023-02-08T05:50:59.353Z,12.55
2023-02-08T05:53:26.241Z,14.15
2023-02-08T05:55:53.182Z,12.32
2023-02-08T05:58:19.733Z,12.32
2023-02-08T06:00:46.182Z,15.70
2023-02-08T06:03:12.830Z,16.27
2023-02-08T06:05:40.740Z,16.75
2023-02-08T06:08:07.938Z,16.05
2023-02-08T06:10:35.402Z,16.05
2023-02-08T06:13:02.179Z,15.82
2023-02-08T06:15:28.792Z,15.27
2023-02-08T06:17:55.371Z,15.52
2023-02-08T06:20:21.930Z,17.17
2023-02-08T06:22:48.354Z,15.95
2023-02-08T06:25:14.906Z,16.17
2023-02-08T06:27:41.357Z,14.65
2023-02-08T06:30:08.093Z,15.38
2023-02-08T06:32:34.563Z,14.80
2023-02-08T06:35:01.253Z,16.25
2023-02-08T06:37:27.667Z,15.10
2023-02-08T06:39:54.415Z,16.48
2023-02-08T06:42:21.079Z,15.85
2023-02-08T06:44:55.074Z,15.65
2023-02-08T06:47:23.200Z,15.48
2023-02-08T06:49:49.727Z,14.82
2023-02-08T06:52:16.283Z,15.52
2023-02-08T06:54:43.222Z,15.27
2023-02-08T06:57:12.719Z,15.35
2023-02-08T06:59:39.962Z,16.75
2023-02-08T07:02:06.945Z,15.75
2023-02-08T07:04:33.428Z,14.88
2023-02-08T07:06:59.859Z,16.67
2023-02-08T07:09:26.405Z,18.50
2023-02-08T07:11:52.833Z,18.00
2023-02-08T07:14:19.429Z,16.77
2023-02-08T07:16:48.478Z,17.50
2023-02-08T07:19:14.978Z,14.30
2023-02-08T07:21:41.767Z,15.88
2023-02-08T07:24:08.226Z,15.65
2023-02-08T07:26:34.644Z,15.63
2023-02-08T07:29:01.305Z,13.95
2023-02-08T07:31:27.806Z,13.35
2023-02-08T07:33:54.208Z,14.43
2023-02-08T07:36:20.791Z,14.05
2023-02-08T07:38:47.216Z,13.40
2023-02-08T07:41:14.465Z,12.63
2023-02-08T07:43:49.106Z,12.60
2023-02-08T07:46:20.933Z,11.18
2023-02-08T07:48:49.955Z,12.25
2023-02-08T07:51:16.394Z,12.60
2023-02-08T07:53:42.867Z,12.80
2023-02-08T07:56:10.469Z,12.27
2023-02-08T07:58:37.604Z,12.00
2023-02-08T08:01:19.727Z,12.73
2023-02-08T08:03:48.442Z,12.25
2023-02-08T08:06:14.988Z,11.65
2023-02-08T08:08:41.396Z,12.00
2023-02-08T08:11:07.842Z,13.18
2023-02-08T08:13:34.250Z,12.02
2023-02-08T08:16:00.694Z,11.82
2023-02-08T08:18:27.481Z,12.48
2023-02-08T08:20:53.945Z,12.27
2023-02-08T08:23:20.355Z,12.80
2023-02-08T08:25:46.835Z,11.32
2023-02-08T08:28:13.441Z,12.40
2023-02-08T08:30:44.193Z,13.18
2023-02-08T08:33:13.941Z,11.60
2023-02-08T08:35:40.892Z,12.60
2023-02-08T08:38:07.357Z,13.20
2023-02-08T08:40:33.887Z,12.88
2023-02-08T08:43:00.320Z,13.43
2023-02-08T08:45:26.855Z,14.75
2023-02-08T08:47:53.532Z,14.70
2023-02-08T08:50:20.084Z,14.50
2023-02-08T08:52:46.726Z,15.98
2023-02-08T08:55:13.431Z,16.17
2023-02-08T08:57:39.890Z,17.17
2023-02-08T09:00:06.759Z,16.40
2023-02-08T09:02:33.197Z,19.30
2023-02-08T09:05:00.420Z,18.67
2023-02-08T09:07:26.960Z,21.27
2023-02-08T09:09:53.382Z,20.92
2023-02-08T09:12:19.797Z,21.88
2023-02-08T09:14:46.240Z,20.67
2023-02-08T09:17:12.696Z,21.52
2023-02-08T09:19:39.321Z,21.95
2023-02-08T09:22:07.418Z,21.95
2023-02-08T09:24:34.885Z,24.38
2023-02-08T09:27:01.630Z,23.75
2023-02-08T09:29:30.337Z,23.77
2023-02-08T09:31:57.302Z,23.33
2023-02-08T09:34:24.144Z,25.02
2023-02-08T09:36:50.895Z,25.42
2023-02-08T09:39:23.259Z,26.33
2023-02-08T09:42:02.528Z,25.77
2023-02-08T09:45:02.314Z,26.00
2023-02-08T09:47:33.179Z,28.08
2023-02-08T09:50:21.061Z,27.90
2023-02-08T09:53:00.622Z,27.83
2023-02-08T09:55:37.456Z,27.58
2023-02-08T09:58:19.225Z,27.80
2023-02-08T10:00:48.162Z,28.42
2023-02-08T10:03:27.507Z,29.58
2023-02-08T10:05:54.287Z,28.08
2023-02-08T10:08:20.936Z,28.00
2023-02-08T10:10:58.410Z,29.05
2023-02-08T10:13:42.186Z,28.27
2023-02-08T10:16:50.847Z,28.67
2023-02-08T10:19:24.466Z,28.27
2023-02-08T10:24:45.261Z,27.70
2023-02-08T10:27:30.475Z,29.17
2023-02-08T10:30:22.008Z,34.80
2023-02-08T10:33:03.236Z,28.88
2023-02-08T10:35:37.645Z,28.52
2023-02-08T10:38:25.150Z,28.75
2023-02-08T10:41:17.411Z,28.55
2023-02-08T10:43:52.170Z,30.98
2023-02-08T10:46:32.681Z,27.75
2023-02-08T10:49:16.908Z,27.38
2023-02-08T10:51:46.190Z,26.70
2023-02-08T10:54:14.330Z,28.30
2023-02-08T10:56:49.720Z,29.15
2023-02-08T10:59:31.749Z,28.98
2023-02-08T11:01:59.184Z,28.48
2023-02-08T11:04:26.093Z,28.30
2023-02-08T11:06:54.627Z,28.23
2023-02-08T11:09:30.254Z,28.17
2023-02-08T11:12:02.441Z,27.27
2023-02-08T11:14:46.785Z,28.42
2023-02-08T11:17:34.082Z,28.65
2023-02-08T11:20:01.400Z,26.25
2023-02-08T11:22:34.475Z,27.85
2023-02-08T11:25:06.860Z,29.48
2023-02-08T11:27:37.457Z,27.73
2023-02-08T11:30:24.559Z,27.48
2023-02-08T11:33:16.076Z,41.80
2023-02-08T11:36:05.158Z,29.25
2023-02-08T11:38:35.082Z,26.05
2023-02-08T11:41:04.646Z,25.48
2023-02-08T11:43:34.818Z,26.13
2023-02-08T11:46:04.027Z,24.95
2023-02-08T11:48:45.507Z,25.38
2023-02-08T11:51:27.345Z,26.50
2023-02-08T11:53:55.200Z,27.35
2023-02-08T11:56:24.959Z,24.48
2023-02-08T11:59:23.580Z,25.75
2023-02-08T12:01:50.144Z,23.15
2023-02-08T12:04:18.047Z,24.08
2023-02-08T12:06:56.845Z,24.65
2023-02-08T12:10:16.852Z,24.42
2023-02-08T12:13:02.429Z,26.88
2023-02-08T12:15:57.381Z,25.35
2023-02-08T12:18:45.072Z,25.15
2023-02-08T12:21:19.324Z,23.85
2023-02-08T12:24:21.504Z,26.60
2023-02-08T12:27:06.748Z,24.83
2023-02-08T12:30:09.396Z,25.85
2023-02-08T12:32:45.601Z,24.73
2023-02-08T12:35:57.595Z,22.65
2023-02-08T12:39:22.785Z,21.15
2023-02-08T12:42:06.313Z,22.13
2023-02-08T12:44:43.713Z,21.35
2023-02-08T12:47:16.307Z,21.50
2023-02-08T12:50:09.193Z,21.38
2023-02-08T12:52:44.192Z,20.58
2023-02-08T12:55:29.098Z,20.45
2023-02-08T12:58:28.164Z,21.20
2023-02-08T13:00:59.020Z,20.88
2023-02-08T13:03:43.837Z,20.25
2023-02-08T13:06:18.153Z,20.45
2023-02-08T13:09:06.391Z,19.30
2023-02-08T13:11:42.057Z,21.35
2023-02-08T13:14:16.366Z,20.27
2023-02-08T13:19:31.713Z,18.38
2023-02-08T13:21:59.732Z,18.15
2023-02-08T13:24:33.472Z,18.58
2023-02-08T13:26:59.994Z,18.92
2023-02-08T13:29:29.399Z,18.02
2023-02-08T13:32:18.631Z,18.50
2023-02-08T13:34:53.563Z,18.50
2023-02-08T13:37:28.908Z,18.58
2023-02-08T13:40:05.890Z,18.45
2023-02-08T13:42:42.798Z,19.02
2023-02-08T13:45:22.362Z,19.52
2023-02-08T13:47:59.774Z,18.52
2023-02-08T13:50:35.064Z,18.35
2023-02-08T13:53:02.456Z,18.80
2023-02-08T13:55:28.890Z,18.85
2023-02-08T13:57:57.561Z,17.80
2023-02-08T14:00:28.584Z,19.17
2023-02-08T14:03:07.335Z,19.73
2023-02-08T14:05:48.577Z,19.60
2023-02-08T14:08:31.211Z,19.17
2023-02-08T14:11:04.912Z,18.33
2023-02-08T14:13:36.031Z,19.35
2023-02-08T14:16:40.044Z,18.60
2023-02-08T14:19:22.836Z,18.80
2023-02-08T14:21:59.155Z,18.95
2023-02-08T14:24:34.294Z,18.27
2023-02-08T14:27:20.440Z,18.48
2023-02-08T14:30:05.136Z,18.38
2023-02-08T14:32:34.601Z,18.52
2023-02-08T14:35:04.274Z,17.13
2023-02-08T14:37:33.434Z,15.90
2023-02-08T14:40:35.072Z,17.38
2023-02-08T14:43:19.517Z,16.27
2023-02-08T14:45:49.217Z,15.38
2023-02-08T14:48:21.262Z,15.50
2023-02-08T14:50:56.517Z,16.83
2023-02-08T14:53:34.434Z,15.95
2023-02-08T14:56:17.304Z,16.27
2023-02-08T14:58:56.056Z,17.73
2023-02-08T15:01:47.038Z,17.77
2023-02-08T15:04:18.235Z,17.48
2023-02-08T15:07:00.178Z,17.38
2023-02-08T15:09:34.891Z,16.83
2023-02-08T15:12:24.106Z,17.42
2023-02-08T15:14:54.045Z,19.77
2023-02-08T15:17:29.400Z,17.83
2023-02-08T15:19:56.316Z,17.23
2023-02-08T15:22:29.355Z,18.48
2023-02-08T15:24:59.311Z,18.30
2023-02-08T15:27:29.725Z,17.15
2023-02-08T15:29:56.585Z,16.40
2023-02-08T15:32:25.396Z,19.42
2023-02-08T15:35:00.417Z,19.38
2023-02-08T15:37:32.207Z,19.23
2023-02-08T15:40:00.100Z,22.15
2023-02-08T15:42:29.977Z,21.75
2023-02-08T15:44:56.946Z,21.33
2023-02-08T15:47:35.825Z,23.58
2023-02-08T15:50:05.432Z,24.38
2023-02-08T15:52:35.196Z,25.30
2023-02-08T15:55:02.408Z,22.95
2023-02-08T15:57:46.235Z,23.38
2023-02-08T16:00:37.646Z,21.75
2023-02-08T16:03:23.901Z,22.63
2023-02-08T16:05:58.881Z,23.15
2023-02-08T16:08:29.723Z,22.17
2023-02-08T16:11:02.830Z,21.83
2023-02-08T16:13:35.656Z,21.90
2023-02-08T16:16:16.317Z,21.10
2023-02-08T16:18:46.287Z,23.00
2023-02-08T16:21:29.504Z,23.40
2023-02-08T16:23:58.908Z,24.02
2023-02-08T16:26:32.397Z,24.75
2023-02-08T16:29:01.910Z,23.48
2023-02-08T16:31:31.354Z,25.33
2023-02-08T16:34:14.319Z,23.35
2023-02-08T16:36:43.576Z,24.45
2023-02-08T16:39:16.348Z,23.40
2023-02-08T16:42:15.100Z,25.23
2023-02-08T16:44:58.912Z,24.17
2023-02-08T16:47:28.496Z,24.52
2023-02-08T16:49:55.048Z,23.45
2023-02-08T16:52:22.043Z,24.25
2023-02-08T16:54:49.111Z,24.02
2023-02-08T16:57:15.570Z,23.17
2023-02-08T16:59:42.228Z,24.80
2023-02-08T17:02:14.487Z,22.90
2023-02-08T17:04:40.966Z,25.35
2023-02-08T17:07:18.612Z,24.58
2023-02-08T17:09:45.449Z,21.40
2023-02-08T17:12:21.795Z,23.00
2023-02-08T17:14:49.088Z,22.23
2023-02-08T17:17:15.584Z,23.27
2023-02-08T17:19:47.539Z,22.92
2023-02-08T17:22:14.454Z,22.35
2023-02-08T17:24:41.448Z,24.00
2023-02-08T17:27:13.074Z,22.77
2023-02-08T17:29:40.261Z,23.48
2023-02-08T17:32:06.722Z,24.77
2023-02-08T17:34:33.412Z,25.33
2023-02-08T17:37:00.171Z,24.63
2023-02-08T17:39:26.832Z,23.80
2023-02-08T17:41:53.671Z,23.92
2023-02-08T17:44:20.666Z,25.27
2023-02-08T17:46:47.384Z,25.05
2023-02-08T17:49:13.873Z,25.83
2023-02-08T17:51:40.774Z,25.40
2023-02-08T17:54:09.722Z,23.23
2023-02-08T17:56:36.850Z,24.20
2023-02-08T17:59:05.417Z,25.13
2023-02-08T18:01:32.629Z,27.02
2023-02-08T18:04:00.144Z,26.48
2023-02-08T18:06:27.145Z,25.98
2023-02-08T18:08:55.082Z,26.42
2023-02-08T18:11:23.707Z,25.85
2023-02-08T18:13:53.297Z,25.83
2023-02-08T18:16:25.608Z,26.50
2023-02-08T18:18:56.762Z,25.48
2023-02-08T18:21:25.798Z,28.77
2023-02-08T18:23:52.699Z,27.60
2023-02-08T18:26:22.169Z,27.90
2023-02-08T18:28:49.283Z,28.05
2023-02-08T18:31:20.488Z,27.70
2023-02-08T18:33:48.672Z,27.80
2023-02-08T18:36:21.811Z,26.25
2023-02-08T18:38:51.813Z,26.60
2023-02-08T18:41:22.873Z,27.42
2023-02-08T18:43:49.716Z,27.83
2023-02-08T18:46:18.407Z,28.65
2023-02-08T18:48:46.238Z,29.20
2023-02-08T18:51:16.373Z,27.92
2023-02-08T18:53:43.291Z,28.30
2023-02-08T18:56:12.206Z,27.55
2023-02-08T18:58:38.708Z,28.23
2023-02-08T19:01:16.529Z,27.33
2023-02-08T19:03:43.785Z,26.52
2023-02-08T19:06:13.413Z,27.05
2023-02-08T19:08:41.361Z,26.48
2023-02-08T19:11:42.128Z,27.48
2023-02-08T19:14:12.548Z,25.10
2023-02-08T19:16:39.578Z,26.33
2023-02-08T19:19:07.050Z,26.20
2023-02-08T19:21:33.993Z,27.83
2023-02-08T19:24:02.084Z,28.48
2023-02-08T19:26:32.652Z,27.80
2023-02-08T19:29:03.274Z,27.90
2023-02-08T19:31:30.808Z,27.20
2023-02-08T19:33:59.203Z,26.92
2023-02-08T19:36:29.185Z,28.08
2023-02-08T19:38:56.474Z,27.52
2023-02-08T19:41:26.363Z,27.92
2023-02-08T19:43:53.212Z,27.92
2023-02-08T19:46:22.435Z,29.85
2023-02-08T19:48:51.137Z,32.55
2023-02-08T19:51:18.801Z,30.05
2023-02-08T19:53:45.632Z,29.27
2023-02-08T19:56:15.203Z,28.83
2023-02-08T19:58:42.130Z,29.60
2023-02-08T20:01:19.051Z,30.20
2023-02-08T20:03:46.976Z,29.95
2023-02-08T20:06:22.833Z,32.10
2023-02-08T20:08:49.595Z,30.52
2023-02-08T20:11:20.550Z,31.33
2023-02-08T20:13:47.876Z,29.98
2023-02-08T20:16:14.499Z,28.83
2023-02-08T20:18:41.071Z,30.52
2023-02-08T20:21:08.125Z,30.38
2023-02-08T20:23:35.208Z,30.13
2023-02-08T20:26:07.390Z,30.35
2023-02-08T20:28:35.122Z,30.83
2023-02-08T20:31:06.026Z,30.67
2023-02-08T20:33:33.963Z,30.55
2023-02-08T20:36:10.956Z,31.02
2023-02-08T20:38:38.138Z,31.63
2023-02-08T20:41:06.442Z,30.35
2023-02-08T20:43:33.629Z,30.98
2023-02-08T20:46:00.968Z,29.83
2023-02-08T20:48:27.538Z,31.42
2023-02-08T20:50:53.996Z,29.13
2023-02-08T20:53:20.538Z,30.15
2023-02-08T20:55:47.154Z,29.48
2023-02-08T20:58:13.620Z,25.65
2023-02-08T21:00:42.379Z,28.38
2023-02-08T21:03:10.049Z,27.25
2023-02-08T21:05:36.634Z,28.13
2023-02-08T21:08:03.126Z,28.52
2023-02-08T21:10:29.696Z,27.65
2023-02-08T21:12:56.334Z,27.77
2023-02-08T21:15:22.879Z,28.90
2023-02-08T21:17:49.521Z,28.65
2023-02-08T21:20:16.129Z,27.85
2023-02-08T21:22:42.756Z,28.98
2023-02-08T21:25:09.641Z,28.00
2023-02-08T21:27:36.319Z,30.98
2023-02-08T21:30:03.096Z,28.15
2023-02-08T21:32:29.893Z,29.38
2023-02-08T21:34:56.372Z,27.15
2023-02-08T21:37:23.111Z,28.48
2023-02-08T21:39:49.569Z,31.35
2023-02-08T21:42:16.485Z,26.92
2023-02-08T21:44:42.942Z,26.95
2023-02-08T21:47:09.405Z,27.70
2023-02-08T21:49:54.544Z,28.77
2023-02-08T21:52:39.755Z,27.13
2023-02-08T21:55:06.417Z,28.95
2023-02-08T21:57:38.327Z,30.15
2023-02-08T22:00:08.364Z,31.13
2023-02-08T22:02:34.933Z,26.20
2023-02-08T22:05:22.375Z,29.02
2023-02-08T22:07:52.304Z,27.00
2023-02-08T22:10:22.045Z,25.10
2023-02-08T22:12:48.879Z,26.42
2023-02-08T22:15:17.993Z,25.63
2023-02-08T22:17:44.628Z,28.38
2023-02-08T22:20:12.677Z,27.15
2023-02-08T22:22:39.445Z,25.50
2023-02-08T22:25:06.826Z,24.65
2023-02-08T22:27:34.334Z,27.83
2023-02-08T22:30:00.843Z,23.05
2023-02-08T22:32:27.357Z,23.95
2023-02-08T22:34:53.809Z,26.48
2023-02-08T22:37:20.739Z,25.00
2023-02-08T22:39:47.213Z,26.73
2023-02-08T22:42:14.667Z,25.17
2023-02-08T22:44:43.302Z,23.25
2023-02-08T22:47:11.696Z,26.23
2023-02-08T22:49:38.843Z,25.17
2023-02-08T22:52:08.188Z,25.15
2023-02-08T22:54:34.746Z,24.75
2023-02-08T22:57:01.209Z,24.77
2023-02-08T22:59:27.723Z,26.02
2023-02-08T23:01:54.241Z,25.80
2023-02-08T23:04:21.836Z,23.73
2023-02-08T23:06:48.329Z,23.23
2023-02-08T23:09:14.972Z,24.88
2023-02-08T23:11:41.946Z,24.83
2023-02-08T23:14:08.956Z,25.17
2023-02-08T23:16:36.188Z,26.10
2023-02-08T23:19:03.739Z,25.90
2023-02-08T23:21:30.229Z,27.60
2023-02-08T23:23:57.316Z,28.13
2023-02-08T23:26:24.055Z,30.85
2023-02-08T23:28:52.580Z,32.20
2023-02-08T23:31:20.012Z,30.83
2023-02-08T23:33:46.810Z,29.52
2023-02-08T23:36:16.881Z,26.02
2023-02-08T23:38:43.890Z,25.92
2023-02-08T23:41:17.182Z,26.17
2023-02-08T23:43:43.818Z,28.70
2023-02-08T23:46:15.985Z,27.80
2023-02-08T23:48:43.245Z,30.70
2023-02-08T23:51:10.792Z,29.88
2023-02-08T23:53:37.795Z,30.98
2023-02-08T23:56:24.717Z,29.83
2023-02-08T23:58:54.191Z,29.73
